sensor_id;sensor_type;location;lat;lon;timestamp;P1;durP1;ratioP1;P2;durP2;ratioP2
7903;SDS011;3997;48.416;8.512;2022-08-23T00:01:39;7.35;;;6.85;;
7903;SDS011;3997;48.416;8.512;2022-08-23T00:04:07;7.85;;;7.25;;
7903;SDS011;3997;48.416;8.512;2022-08-23T00:06:34;8.27;;;7.57;;
7903;SDS011;3997;48.416;8.512;2022-08-23T00:09:00;7.78;;;7.28;;
7903;SDS011;3997;48.416;8.512;2022-08-23T00:11:28;7.55;;;7.13;;
7903;SDS011;3997;48.416;8.512;2022-08-23T00:13:57;7.70;;;7.15;;
7903;SDS011;3997;48.416;8.512;2022-08-23T00:16:23;7.88;;;7.28;;
7903;SDS011;3997;48.416;8.512;2022-08-23T00:18:51;7.95;;;7.25;;
7903;SDS011;3997;48.416;8.512;2022-08-23T00:21:18;7.75;;;7.15;;
7903;SDS011;3997;48.416;8.512;2022-08-23T00:23:44;7.97;;;7.22;;
7903;SDS011;3997;48.416;8.512;2022-08-23T00:26:11;8.20;;;7.50;;
7903;SDS011;3997;48.416;8.512;2022-08-23T00:28:37;7.68;;;7.00;;
7903;SDS011;3997;48.416;8.512;2022-08-23T00:31:04;8.05;;;7.38;;
7903;SDS011;3997;48.416;8.512;2022-08-23T00:33:31;7.68;;;7.10;;
7903;SDS011;3997;48.416;8.512;2022-08-23T00:35:58;8.07;;;7.38;;
7903;SDS011;3997;48.416;8.512;2022-08-23T00:38:25;7.38;;;6.78;;
7903;SDS011;3997;48.416;8.512;2022-08-23T00:40:52;8.23;;;7.65;;
7903;SDS011;3997;48.416;8.512;2022-08-23T00:43:21;7.72;;;6.90;;
7903;SDS011;3997;48.416;8.512;2022-08-23T00:46:07;7.40;;;6.90;;
7903;SDS011;3997;48.416;8.512;2022-08-23T00:48:53;6.90;;;6.50;;
7903;SDS011;3997;48.416;8.512;2022-08-23T00:51:22;7.20;;;6.60;;
7903;SDS011;3997;48.416;8.512;2022-08-23T00:53:52;8.38;;;7.70;;
7903;SDS011;3997;48.416;8.512;2022-08-23T00:56:20;7.85;;;7.25;;
7903;SDS011;3997;48.416;8.512;2022-08-23T00:58:47;7.68;;;6.97;;
7903;SDS011;3997;48.416;8.512;2022-08-23T01:01:14;7.82;;;7.22;;
7903;SDS011;3997;48.416;8.512;2022-08-23T01:03:42;7.90;;;7.30;;
7903;SDS011;3997;48.416;8.512;2022-08-23T01:06:09;8.68;;;8.02;;
7903;SDS011;3997;48.416;8.512;2022-08-23T01:08:38;7.72;;;7.22;;
7903;SDS011;3997;48.416;8.512;2022-08-23T01:11:08;8.23;;;7.53;;
7903;SDS011;3997;48.416;8.512;2022-08-23T01:13:36;8.00;;;7.50;;
7903;SDS011;3997;48.416;8.512;2022-08-23T01:16:05;8.63;;;7.85;;
7903;SDS011;3997;48.416;8.512;2022-08-23T01:18:32;9.00;;;8.32;;
7903;SDS011;3997;48.416;8.512;2022-08-23T01:21:00;8.10;;;7.50;;
7903;SDS011;3997;48.416;8.512;2022-08-23T01:23:30;8.60;;;7.90;;
7903;SDS011;3997;48.416;8.512;2022-08-23T01:25:58;8.85;;;8.07;;
7903;SDS011;3997;48.416;8.512;2022-08-23T01:28:25;8.48;;;7.85;;
7903;SDS011;3997;48.416;8.512;2022-08-23T01:30:52;8.05;;;7.53;;
7903;SDS011;3997;48.416;8.512;2022-08-23T01:33:19;7.78;;;7.15;;
7903;SDS011;3997;48.416;8.512;2022-08-23T01:35:46;8.27;;;7.68;;
7903;SDS011;3997;48.416;8.512;2022-08-23T01:38:14;8.75;;;8.07;;
7903;SDS011;3997;48.416;8.512;2022-08-23T01:40:42;7.88;;;7.38;;
7903;SDS011;3997;48.416;8.512;2022-08-23T01:43:09;8.73;;;8.00;;
7903;SDS011;3997;48.416;8.512;2022-08-23T01:45:37;7.75;;;7.25;;
7903;SDS011;3997;48.416;8.512;2022-08-23T01:48:03;8.13;;;7.63;;
7903;SDS011;3997;48.416;8.512;2022-08-23T01:50:30;8.32;;;7.72;;
7903;SDS011;3997;48.416;8.512;2022-08-23T01:52:57;8.70;;;8.00;;
7903;SDS011;3997;48.416;8.512;2022-08-23T01:55:23;8.38;;;7.68;;
7903;SDS011;3997;48.416;8.512;2022-08-23T01:57:54;8.70;;;8.10;;
7903;SDS011;3997;48.416;8.512;2022-08-23T02:00:22;7.93;;;7.32;;
7903;SDS011;3997;48.416;8.512;2022-08-23T02:02:49;8.65;;;8.07;;
7903;SDS011;3997;48.416;8.512;2022-08-23T02:05:16;8.00;;;7.50;;
7903;SDS011;3997;48.416;8.512;2022-08-23T02:07:43;8.55;;;7.90;;
7903;SDS011;3997;48.416;8.512;2022-08-23T02:10:09;8.07;;;7.47;;
7903;SDS011;3997;48.416;8.512;2022-08-23T02:12:36;8.68;;;7.97;;
7903;SDS011;3997;48.416;8.512;2022-08-23T02:15:04;8.23;;;7.50;;
7903;SDS011;3997;48.416;8.512;2022-08-23T02:17:31;7.75;;;7.22;;
7903;SDS011;3997;48.416;8.512;2022-08-23T02:19:57;7.88;;;7.32;;
7903;SDS011;3997;48.416;8.512;2022-08-23T02:22:24;8.23;;;7.63;;
7903;SDS011;3997;48.416;8.512;2022-08-23T02:24:50;8.63;;;7.85;;
7903;SDS011;3997;48.416;8.512;2022-08-23T02:27:16;8.38;;;7.57;;
7903;SDS011;3997;48.416;8.512;2022-08-23T02:29:44;8.32;;;7.72;;
7903;SDS011;3997;48.416;8.512;2022-08-23T02:32:13;8.27;;;7.70;;
7903;SDS011;3997;48.416;8.512;2022-08-23T02:34:40;8.35;;;7.75;;
7903;SDS011;3997;48.416;8.512;2022-08-23T02:37:07;8.77;;;8.18;;
7903;SDS011;3997;48.416;8.512;2022-08-23T02:39:34;8.05;;;7.25;;
7903;SDS011;3997;48.416;8.512;2022-08-23T02:42:01;6.97;;;6.28;;
7903;SDS011;3997;48.416;8.512;2022-08-23T02:44:27;7.63;;;7.03;;
7903;SDS011;3997;48.416;8.512;2022-08-23T02:46:58;7.28;;;6.78;;
7903;SDS011;3997;48.416;8.512;2022-08-23T02:49:26;8.23;;;7.63;;
7903;SDS011;3997;48.416;8.512;2022-08-23T02:51:52;8.23;;;7.53;;
7903;SDS011;3997;48.416;8.512;2022-08-23T02:54:19;9.10;;;7.90;;
7903;SDS011;3997;48.416;8.512;2022-08-23T02:56:45;9.10;;;8.30;;
7903;SDS011;3997;48.416;8.512;2022-08-23T02:59:12;8.90;;;8.13;;
7903;SDS011;3997;48.416;8.512;2022-08-23T03:01:38;9.38;;;8.50;;
7903;SDS011;3997;48.416;8.512;2022-08-23T03:04:06;9.02;;;8.38;;
7903;SDS011;3997;48.416;8.512;2022-08-23T03:06:34;8.85;;;8.25;;
7903;SDS011;3997;48.416;8.512;2022-08-23T03:09:02;8.40;;;7.80;;
7903;SDS011;3997;48.416;8.512;2022-08-23T03:11:29;9.00;;;8.30;;
7903;SDS011;3997;48.416;8.512;2022-08-23T03:13:55;10.25;;;9.25;;
7903;SDS011;3997;48.416;8.512;2022-08-23T03:16:22;8.50;;;7.88;;
7903;SDS011;3997;48.416;8.512;2022-08-23T03:18:49;8.50;;;7.70;;
7903;SDS011;3997;48.416;8.512;2022-08-23T03:21:16;8.02;;;7.38;;
7903;SDS011;3997;48.416;8.512;2022-08-23T03:23:44;7.85;;;7.35;;
7903;SDS011;3997;48.416;8.512;2022-08-23T03:26:11;8.20;;;7.40;;
7903;SDS011;3997;48.416;8.512;2022-08-23T03:28:39;7.72;;;7.03;;
7903;SDS011;3997;48.416;8.512;2022-08-23T03:31:06;8.32;;;7.63;;
7903;SDS011;3997;48.416;8.512;2022-08-23T03:33:33;7.50;;;6.70;;
7903;SDS011;3997;48.416;8.512;2022-08-23T03:35:59;7.72;;;7.15;;
7903;SDS011;3997;48.416;8.512;2022-08-23T03:38:26;7.68;;;7.07;;
7903;SDS011;3997;48.416;8.512;2022-08-23T03:40:54;7.50;;;6.93;;
7903;SDS011;3997;48.416;8.512;2022-08-23T03:43:21;7.03;;;6.53;;
7903;SDS011;3997;48.416;8.512;2022-08-23T03:45:47;7.55;;;6.85;;
7903;SDS011;3997;48.416;8.512;2022-08-23T03:48:14;7.68;;;7.03;;
7903;SDS011;3997;48.416;8.512;2022-08-23T03:50:40;6.90;;;6.40;;
7903;SDS011;3997;48.416;8.512;2022-08-23T03:53:07;7.15;;;6.60;;
7903;SDS011;3997;48.416;8.512;2022-08-23T03:55:34;7.25;;;6.68;;
7903;SDS011;3997;48.416;8.512;2022-08-23T03:58:02;7.03;;;6.43;;
7903;SDS011;3997;48.416;8.512;2022-08-23T04:00:29;7.10;;;6.60;;
7903;SDS011;3997;48.416;8.512;2022-08-23T04:02:55;7.10;;;6.60;;
7903;SDS011;3997;48.416;8.512;2022-08-23T04:05:22;7.43;;;6.82;;
7903;SDS011;3997;48.416;8.512;2022-08-23T04:07:48;7.28;;;6.78;;
7903;SDS011;3997;48.416;8.512;2022-08-23T04:10:15;8.32;;;7.55;;
7903;SDS011;3997;48.416;8.512;2022-08-23T04:12:41;6.93;;;6.32;;
7903;SDS011;3997;48.416;8.512;2022-08-23T04:15:11;7.32;;;6.65;;
7903;SDS011;3997;48.416;8.512;2022-08-23T04:17:38;7.28;;;6.68;;
7903;SDS011;3997;48.416;8.512;2022-08-23T04:20:05;8.65;;;7.95;;
7903;SDS011;3997;48.416;8.512;2022-08-23T04:22:32;8.98;;;7.68;;
7903;SDS011;3997;48.416;8.512;2022-08-23T04:24:58;8.43;;;6.82;;
7903;SDS011;3997;48.416;8.512;2022-08-23T04:27:26;10.65;;;8.13;;
7903;SDS011;3997;48.416;8.512;2022-08-23T04:29:52;7.13;;;6.38;;
7903;SDS011;3997;48.416;8.512;2022-08-23T04:32:20;8.85;;;7.95;;
7903;SDS011;3997;48.416;8.512;2022-08-23T04:34:46;8.57;;;7.75;;
7903;SDS011;3997;48.416;8.512;2022-08-23T04:37:13;9.13;;;8.25;;
7903;SDS011;3997;48.416;8.512;2022-08-23T04:39:40;8.25;;;7.65;;
7903;SDS011;3997;48.416;8.512;2022-08-23T04:42:24;8.52;;;7.82;;
7903;SDS011;3997;48.416;8.512;2022-08-23T04:44:50;8.68;;;7.97;;
7903;SDS011;3997;48.416;8.512;2022-08-23T04:47:17;8.13;;;7.45;;
7903;SDS011;3997;48.416;8.512;2022-08-23T04:49:45;7.82;;;7.25;;
7903;SDS011;3997;48.416;8.512;2022-08-23T04:52:12;9.32;;;7.40;;
7903;SDS011;3997;48.416;8.512;2022-08-23T04:54:38;7.47;;;6.97;;
7903;SDS011;3997;48.416;8.512;2022-08-23T04:57:05;7.70;;;7.10;;
7903;SDS011;3997;48.416;8.512;2022-08-23T04:59:31;7.50;;;7.07;;
7903;SDS011;3997;48.416;8.512;2022-08-23T05:01:58;7.90;;;7.10;;
7903;SDS011;3997;48.416;8.512;2022-08-23T05:04:24;8.07;;;7.47;;
7903;SDS011;3997;48.416;8.512;2022-08-23T05:06:52;8.35;;;7.70;;
7903;SDS011;3997;48.416;8.512;2022-08-23T05:09:18;8.73;;;8.05;;
7903;SDS011;3997;48.416;8.512;2022-08-23T05:11:45;8.10;;;7.50;;
7903;SDS011;3997;48.416;8.512;2022-08-23T05:14:11;6.57;;;6.03;;
7903;SDS011;3997;48.416;8.512;2022-08-23T05:16:38;7.20;;;6.65;;
7903;SDS011;3997;48.416;8.512;2022-08-23T05:19:04;6.95;;;6.28;;
7903;SDS011;3997;48.416;8.512;2022-08-23T05:21:31;7.88;;;7.18;;
7903;SDS011;3997;48.416;8.512;2022-08-23T05:23:59;7.28;;;6.53;;
7903;SDS011;3997;48.416;8.512;2022-08-23T05:26:25;7.03;;;6.43;;
7903;SDS011;3997;48.416;8.512;2022-08-23T05:28:52;6.32;;;5.88;;
7903;SDS011;3997;48.416;8.512;2022-08-23T05:31:19;8.57;;;6.22;;
7903;SDS011;3997;48.416;8.512;2022-08-23T05:33:45;6.65;;;5.38;;
7903;SDS011;3997;48.416;8.512;2022-08-23T05:36:12;6.20;;;5.60;;
7903;SDS011;3997;48.416;8.512;2022-08-23T05:38:39;7.13;;;6.63;;
7903;SDS011;3997;48.416;8.512;2022-08-23T05:41:08;7.32;;;6.72;;
7903;SDS011;3997;48.416;8.512;2022-08-23T05:43:34;10.55;;;5.75;;
7903;SDS011;3997;48.416;8.512;2022-08-23T05:46:02;8.00;;;5.82;;
7903;SDS011;3997;48.416;8.512;2022-08-23T05:48:29;8.00;;;7.35;;
7903;SDS011;3997;48.416;8.512;2022-08-23T05:50:55;7.90;;;7.30;;
7903;SDS011;3997;48.416;8.512;2022-08-23T05:53:22;8.27;;;7.68;;
7903;SDS011;3997;48.416;8.512;2022-08-23T05:55:48;8.88;;;8.15;;
7903;SDS011;3997;48.416;8.512;2022-08-23T05:58:16;9.88;;;8.70;;
7903;SDS011;3997;48.416;8.512;2022-08-23T06:00:43;9.15;;;8.35;;
7903;SDS011;3997;48.416;8.512;2022-08-23T06:03:09;9.20;;;8.32;;
7903;SDS011;3997;48.416;8.512;2022-08-23T06:05:37;9.70;;;8.77;;
7903;SDS011;3997;48.416;8.512;2022-08-23T06:08:04;9.43;;;8.73;;
7903;SDS011;3997;48.416;8.512;2022-08-23T06:10:30;9.95;;;9.18;;
7903;SDS011;3997;48.416;8.512;2022-08-23T06:12:57;9.85;;;9.00;;
7903;SDS011;3997;48.416;8.512;2022-08-23T06:15:25;9.13;;;8.32;;
7903;SDS011;3997;48.416;8.512;2022-08-23T06:17:51;9.57;;;8.77;;
7903;SDS011;3997;48.416;8.512;2022-08-23T06:20:17;8.90;;;8.30;;
7903;SDS011;3997;48.416;8.512;2022-08-23T06:22:44;9.02;;;8.32;;
7903;SDS011;3997;48.416;8.512;2022-08-23T06:25:11;9.20;;;8.35;;
7903;SDS011;3997;48.416;8.512;2022-08-23T06:27:37;8.80;;;8.18;;
7903;SDS011;3997;48.416;8.512;2022-08-23T06:30:04;8.75;;;8.15;;
7903;SDS011;3997;48.416;8.512;2022-08-23T06:32:33;7.10;;;6.50;;
7903;SDS011;3997;48.416;8.512;2022-08-23T06:35:00;6.68;;;6.18;;
7903;SDS011;3997;48.416;8.512;2022-08-23T06:37:26;7.10;;;6.68;;
7903;SDS011;3997;48.416;8.512;2022-08-23T06:39:53;6.47;;;5.97;;
7903;SDS011;3997;48.416;8.512;2022-08-23T06:42:21;6.10;;;5.60;;
7903;SDS011;3997;48.416;8.512;2022-08-23T06:44:49;5.82;;;5.43;;
7903;SDS011;3997;48.416;8.512;2022-08-23T06:47:15;6.22;;;5.72;;
7903;SDS011;3997;48.416;8.512;2022-08-23T06:49:43;6.40;;;5.82;;
7903;SDS011;3997;48.416;8.512;2022-08-23T06:52:09;6.80;;;6.20;;
7903;SDS011;3997;48.416;8.512;2022-08-23T06:54:36;5.97;;;5.55;;
7903;SDS011;3997;48.416;8.512;2022-08-23T06:57:03;6.03;;;5.55;;
7903;SDS011;3997;48.416;8.512;2022-08-23T06:59:30;6.30;;;5.78;;
7903;SDS011;3997;48.416;8.512;2022-08-23T07:01:57;6.50;;;5.95;;
7903;SDS011;3997;48.416;8.512;2022-08-23T07:04:25;6.05;;;5.55;;
7903;SDS011;3997;48.416;8.512;2022-08-23T07:06:54;5.60;;;5.10;;
7903;SDS011;3997;48.416;8.512;2022-08-23T07:09:20;5.88;;;5.38;;
7903;SDS011;3997;48.416;8.512;2022-08-23T07:11:47;7.35;;;6.75;;
7903;SDS011;3997;48.416;8.512;2022-08-23T07:14:15;5.60;;;5.30;;
7903;SDS011;3997;48.416;8.512;2022-08-23T07:16:42;5.70;;;5.13;;
7903;SDS011;3997;48.416;8.512;2022-08-23T07:19:09;5.28;;;4.78;;
7903;SDS011;3997;48.416;8.512;2022-08-23T07:21:36;6.47;;;5.97;;
7903;SDS011;3997;48.416;8.512;2022-08-23T07:24:04;6.20;;;5.80;;
7903;SDS011;3997;48.416;8.512;2022-08-23T07:26:31;4.93;;;4.57;;
7903;SDS011;3997;48.416;8.512;2022-08-23T07:28:58;5.30;;;4.90;;
7903;SDS011;3997;48.416;8.512;2022-08-23T07:31:26;5.20;;;4.68;;
7903;SDS011;3997;48.416;8.512;2022-08-23T07:33:53;5.10;;;4.70;;
7903;SDS011;3997;48.416;8.512;2022-08-23T07:36:20;4.75;;;4.35;;
7903;SDS011;3997;48.416;8.512;2022-08-23T07:38:47;5.50;;;5.00;;
7903;SDS011;3997;48.416;8.512;2022-08-23T07:41:15;5.40;;;4.85;;
7903;SDS011;3997;48.416;8.512;2022-08-23T07:43:43;4.75;;;4.30;;
7903;SDS011;3997;48.416;8.512;2022-08-23T07:46:09;4.57;;;4.00;;
7903;SDS011;3997;48.416;8.512;2022-08-23T07:48:36;5.80;;;5.30;;
7903;SDS011;3997;48.416;8.512;2022-08-23T07:51:04;4.90;;;4.43;;
7903;SDS011;3997;48.416;8.512;2022-08-23T07:53:31;4.45;;;4.05;;
7903;SDS011;3997;48.416;8.512;2022-08-23T07:55:57;4.57;;;4.18;;
7903;SDS011;3997;48.416;8.512;2022-08-23T07:58:25;4.50;;;4.18;;
7903;SDS011;3997;48.416;8.512;2022-08-23T08:00:52;4.57;;;4.10;;
7903;SDS011;3997;48.416;8.512;2022-08-23T08:03:18;4.30;;;4.00;;
7903;SDS011;3997;48.416;8.512;2022-08-23T08:05:45;4.32;;;4.00;;
7903;SDS011;3997;48.416;8.512;2022-08-23T08:08:12;5.53;;;5.00;;
7903;SDS011;3997;48.416;8.512;2022-08-23T08:10:39;4.40;;;4.03;;
7903;SDS011;3997;48.416;8.512;2022-08-23T08:13:06;5.45;;;4.00;;
7903;SDS011;3997;48.416;8.512;2022-08-23T08:15:34;4.57;;;4.28;;
7903;SDS011;3997;48.416;8.512;2022-08-23T08:18:01;4.00;;;3.80;;
7903;SDS011;3997;48.416;8.512;2022-08-23T08:20:27;4.53;;;4.15;;
7903;SDS011;3997;48.416;8.512;2022-08-23T08:22:55;4.75;;;4.55;;
7903;SDS011;3997;48.416;8.512;2022-08-23T08:25:21;5.47;;;5.00;;
7903;SDS011;3997;48.416;8.512;2022-08-23T08:27:48;5.30;;;4.80;;
7903;SDS011;3997;48.416;8.512;2022-08-23T08:30:14;3.95;;;3.63;;
7903;SDS011;3997;48.416;8.512;2022-08-23T08:32:42;3.90;;;3.60;;
7903;SDS011;3997;48.416;8.512;2022-08-23T08:35:09;4.88;;;3.83;;
7903;SDS011;3997;48.416;8.512;2022-08-23T08:37:35;4.88;;;4.30;;
7903;SDS011;3997;48.416;8.512;2022-08-23T08:40:03;4.90;;;4.60;;
7903;SDS011;3997;48.416;8.512;2022-08-23T08:42:43;5.03;;;4.63;;
7903;SDS011;3997;48.416;8.512;2022-08-23T08:45:12;4.80;;;4.50;;
7903;SDS011;3997;48.416;8.512;2022-08-23T08:47:42;5.10;;;4.70;;
7903;SDS011;3997;48.416;8.512;2022-08-23T08:50:13;6.88;;;5.38;;
7903;SDS011;3997;48.416;8.512;2022-08-23T08:52:44;5.03;;;4.72;;
7903;SDS011;3997;48.416;8.512;2022-08-23T08:55:13;4.07;;;3.67;;
7903;SDS011;3997;48.416;8.512;2022-08-23T08:57:43;4.22;;;3.70;;
7903;SDS011;3997;48.416;8.512;2022-08-23T09:00:11;6.97;;;4.20;;
7903;SDS011;3997;48.416;8.512;2022-08-23T09:02:39;3.60;;;3.40;;
7903;SDS011;3997;48.416;8.512;2022-08-23T09:05:13;3.65;;;3.38;;
7903;SDS011;3997;48.416;8.512;2022-08-23T09:07:45;4.95;;;4.65;;
7903;SDS011;3997;48.416;8.512;2022-08-23T09:10:26;4.35;;;4.15;;
7903;SDS011;3997;48.416;8.512;2022-08-23T09:12:58;3.70;;;3.40;;
7903;SDS011;3997;48.416;8.512;2022-08-23T09:15:28;3.63;;;3.33;;
7903;SDS011;3997;48.416;8.512;2022-08-23T09:18:02;4.57;;;4.22;;
7903;SDS011;3997;48.416;8.512;2022-08-23T09:20:32;4.80;;;3.17;;
7903;SDS011;3997;48.416;8.512;2022-08-23T09:23:02;3.70;;;3.40;;
7903;SDS011;3997;48.416;8.512;2022-08-23T09:25:30;5.07;;;4.63;;
7903;SDS011;3997;48.416;8.512;2022-08-23T09:27:56;4.47;;;4.18;;
7903;SDS011;3997;48.416;8.512;2022-08-23T09:30:33;3.38;;;3.13;;
7903;SDS011;3997;48.416;8.512;2022-08-23T09:33:13;3.60;;;3.40;;
7903;SDS011;3997;48.416;8.512;2022-08-23T09:35:40;4.68;;;4.38;;
7903;SDS011;3997;48.416;8.512;2022-08-23T09:38:17;4.13;;;3.92;;
7903;SDS011;3997;48.416;8.512;2022-08-23T09:40:46;4.70;;;4.30;;
7903;SDS011;3997;48.416;8.512;2022-08-23T09:43:14;4.13;;;3.83;;
7903;SDS011;3997;48.416;8.512;2022-08-23T09:45:41;3.58;;;3.30;;
7903;SDS011;3997;48.416;8.512;2022-08-23T09:48:30;3.72;;;3.42;;
7903;SDS011;3997;48.416;8.512;2022-08-23T09:51:02;3.88;;;3.00;;
7903;SDS011;3997;48.416;8.512;2022-08-23T09:53:31;3.10;;;2.90;;
7903;SDS011;3997;48.416;8.512;2022-08-23T09:56:08;5.30;;;3.10;;
7903;SDS011;3997;48.416;8.512;2022-08-23T09:58:37;3.53;;;3.10;;
7903;SDS011;3997;48.416;8.512;2022-08-23T10:01:09;3.40;;;3.08;;
7903;SDS011;3997;48.416;8.512;2022-08-23T10:03:37;3.10;;;2.83;;
7903;SDS011;3997;48.416;8.512;2022-08-23T10:06:04;3.08;;;2.88;;
7903;SDS011;3997;48.416;8.512;2022-08-23T10:08:34;3.40;;;3.10;;
7903;SDS011;3997;48.416;8.512;2022-08-23T10:11:04;3.40;;;3.10;;
7903;SDS011;3997;48.416;8.512;2022-08-23T10:13:32;3.13;;;2.92;;
7903;SDS011;3997;48.416;8.512;2022-08-23T10:16:04;4.55;;;3.08;;
7903;SDS011;3997;48.416;8.512;2022-08-23T10:18:36;4.80;;;2.90;;
7903;SDS011;3997;48.416;8.512;2022-08-23T10:21:09;3.15;;;2.95;;
7903;SDS011;3997;48.416;8.512;2022-08-23T10:23:44;3.00;;;2.80;;
7903;SDS011;3997;48.416;8.512;2022-08-23T10:26:16;3.97;;;3.67;;
7903;SDS011;3997;48.416;8.512;2022-08-23T10:28:46;3.22;;;2.92;;
7903;SDS011;3997;48.416;8.512;2022-08-23T10:31:32;3.00;;;2.80;;
7903;SDS011;3997;48.416;8.512;2022-08-23T10:34:02;3.75;;;3.55;;
7903;SDS011;3997;48.416;8.512;2022-08-23T10:36:32;4.15;;;3.78;;
7903;SDS011;3997;48.416;8.512;2022-08-23T10:39:02;4.32;;;3.83;;
7903;SDS011;3997;48.416;8.512;2022-08-23T10:41:33;3.03;;;2.83;;
7903;SDS011;3997;48.416;8.512;2022-08-23T10:44:04;3.03;;;2.78;;
7903;SDS011;3997;48.416;8.512;2022-08-23T10:46:36;2.70;;;2.47;;
7903;SDS011;3997;48.416;8.512;2022-08-23T10:49:04;3.85;;;3.63;;
7903;SDS011;3997;48.416;8.512;2022-08-23T10:51:33;3.92;;;3.70;;
7903;SDS011;3997;48.416;8.512;2022-08-23T10:54:04;2.88;;;2.67;;
7903;SDS011;3997;48.416;8.512;2022-08-23T10:56:32;2.67;;;2.47;;
7903;SDS011;3997;48.416;8.512;2022-08-23T10:59:00;2.40;;;2.30;;
7903;SDS011;3997;48.416;8.512;2022-08-23T11:01:28;2.35;;;2.08;;
7903;SDS011;3997;48.416;8.512;2022-08-23T11:04:01;2.88;;;2.67;;
7903;SDS011;3997;48.416;8.512;2022-08-23T11:06:40;2.88;;;2.60;;
7903;SDS011;3997;48.416;8.512;2022-08-23T11:12:02;2.75;;;2.63;;
7903;SDS011;3997;48.416;8.512;2022-08-23T11:14:33;2.70;;;2.53;;
7903;SDS011;3997;48.416;8.512;2022-08-23T11:17:03;2.83;;;2.60;;
7903;SDS011;3997;48.416;8.512;2022-08-23T11:19:48;2.97;;;2.30;;
7903;SDS011;3997;48.416;8.512;2022-08-23T11:22:15;2.65;;;2.53;;
7903;SDS011;3997;48.416;8.512;2022-08-23T11:24:51;3.10;;;2.50;;
7903;SDS011;3997;48.416;8.512;2022-08-23T11:27:28;3.42;;;3.22;;
7903;SDS011;3997;48.416;8.512;2022-08-23T11:29:55;2.53;;;2.33;;
7903;SDS011;3997;48.416;8.512;2022-08-23T11:32:25;2.42;;;2.28;;
7903;SDS011;3997;48.416;8.512;2022-08-23T11:34:55;2.30;;;2.10;;
7903;SDS011;3997;48.416;8.512;2022-08-23T11:37:25;2.28;;;2.17;;
7903;SDS011;3997;48.416;8.512;2022-08-23T11:40:08;2.72;;;2.53;;
7903;SDS011;3997;48.416;8.512;2022-08-23T11:42:46;3.08;;;2.35;;
7903;SDS011;3997;48.416;8.512;2022-08-23T11:45:27;2.92;;;2.30;;
7903;SDS011;3997;48.416;8.512;2022-08-23T11:48:03;2.38;;;2.17;;
7903;SDS011;3997;48.416;8.512;2022-08-23T11:50:32;2.75;;;2.55;;
7903;SDS011;3997;48.416;8.512;2022-08-23T11:53:12;2.42;;;2.33;;
7903;SDS011;3997;48.416;8.512;2022-08-23T11:56:04;2.55;;;2.30;;
7903;SDS011;3997;48.416;8.512;2022-08-23T11:58:49;2.20;;;2.08;;
7903;SDS011;3997;48.416;8.512;2022-08-23T12:01:18;3.20;;;3.00;;
7903;SDS011;3997;48.416;8.512;2022-08-23T12:03:53;3.28;;;3.00;;
7903;SDS011;3997;48.416;8.512;2022-08-23T12:06:37;2.80;;;2.60;;
7903;SDS011;3997;48.416;8.512;2022-08-23T12:09:06;2.30;;;2.20;;
7903;SDS011;3997;48.416;8.512;2022-08-23T12:14:32;2.15;;;2.05;;
7903;SDS011;3997;48.416;8.512;2022-08-23T12:17:01;2.05;;;1.95;;
7903;SDS011;3997;48.416;8.512;2022-08-23T12:19:29;1.90;;;1.80;;
7903;SDS011;3997;48.416;8.512;2022-08-23T12:22:03;2.22;;;1.95;;
7903;SDS011;3997;48.416;8.512;2022-08-23T12:24:32;2.17;;;2.00;;
7903;SDS011;3997;48.416;8.512;2022-08-23T12:27:09;2.17;;;1.95;;
7903;SDS011;3997;48.416;8.512;2022-08-23T12:29:51;4.75;;;2.20;;
7903;SDS011;3997;48.416;8.512;2022-08-23T12:32:20;2.13;;;1.90;;
7903;SDS011;3997;48.416;8.512;2022-08-23T12:34:54;3.33;;;2.22;;
7903;SDS011;3997;48.416;8.512;2022-08-23T12:37:27;3.08;;;2.88;;
7903;SDS011;3997;48.416;8.512;2022-08-23T12:39:56;2.90;;;2.70;;
7903;SDS011;3997;48.416;8.512;2022-08-23T12:42:25;1.92;;;1.83;;
7903;SDS011;3997;48.416;8.512;2022-08-23T12:45:00;3.40;;;3.20;;
7903;SDS011;3997;48.416;8.512;2022-08-23T12:47:27;3.47;;;3.20;;
7903;SDS011;3997;48.416;8.512;2022-08-23T12:49:56;2.58;;;2.03;;
7903;SDS011;3997;48.416;8.512;2022-08-23T12:52:23;2.13;;;2.03;;
7903;SDS011;3997;48.416;8.512;2022-08-23T12:54:50;2.70;;;2.50;;
7903;SDS011;3997;48.416;8.512;2022-08-23T12:57:23;2.20;;;2.10;;
7903;SDS011;3997;48.416;8.512;2022-08-23T12:59:53;2.22;;;2.00;;
7903;SDS011;3997;48.416;8.512;2022-08-23T13:02:25;2.10;;;2.00;;
7903;SDS011;3997;48.416;8.512;2022-08-23T13:04:51;2.13;;;2.03;;
7903;SDS011;3997;48.416;8.512;2022-08-23T13:07:19;3.65;;;2.03;;
7903;SDS011;3997;48.416;8.512;2022-08-23T13:09:47;2.05;;;1.95;;
7903;SDS011;3997;48.416;8.512;2022-08-23T13:12:13;2.20;;;2.00;;
7903;SDS011;3997;48.416;8.512;2022-08-23T13:14:43;2.00;;;1.90;;
7903;SDS011;3997;48.416;8.512;2022-08-23T13:17:11;2.08;;;1.90;;
7903;SDS011;3997;48.416;8.512;2022-08-23T13:19:39;2.20;;;2.10;;
7903;SDS011;3997;48.416;8.512;2022-08-23T13:22:11;2.10;;;2.00;;
7903;SDS011;3997;48.416;8.512;2022-08-23T13:24:38;2.60;;;2.20;;
7903;SDS011;3997;48.416;8.512;2022-08-23T13:27:09;2.15;;;2.05;;
7903;SDS011;3997;48.416;8.512;2022-08-23T13:29:46;2.05;;;1.95;;
7903;SDS011;3997;48.416;8.512;2022-08-23T13:32:23;2.35;;;2.10;;
7903;SDS011;3997;48.416;8.512;2022-08-23T13:34:51;2.15;;;2.05;;
7903;SDS011;3997;48.416;8.512;2022-08-23T13:37:20;1.95;;;1.75;;
7903;SDS011;3997;48.416;8.512;2022-08-23T13:39:49;2.15;;;2.00;;
7903;SDS011;3997;48.416;8.512;2022-08-23T13:42:23;2.28;;;2.17;;
7903;SDS011;3997;48.416;8.512;2022-08-23T13:44:50;2.45;;;2.30;;
7903;SDS011;3997;48.416;8.512;2022-08-23T13:47:23;2.80;;;2.30;;
7903;SDS011;3997;48.416;8.512;2022-08-23T13:49:52;2.00;;;1.90;;
7903;SDS011;3997;48.416;8.512;2022-08-23T13:52:19;2.45;;;2.25;;
7903;SDS011;3997;48.416;8.512;2022-08-23T13:54:46;2.45;;;2.20;;
7903;SDS011;3997;48.416;8.512;2022-08-23T13:57:14;2.00;;;1.90;;
7903;SDS011;3997;48.416;8.512;2022-08-23T13:59:45;1.98;;;1.88;;
7903;SDS011;3997;48.416;8.512;2022-08-23T14:02:14;2.00;;;1.90;;
7903;SDS011;3997;48.416;8.512;2022-08-23T14:04:42;2.10;;;2.00;;
7903;SDS011;3997;48.416;8.512;2022-08-23T14:07:10;2.00;;;1.90;;
7903;SDS011;3997;48.416;8.512;2022-08-23T14:09:37;1.88;;;1.75;;
7903;SDS011;3997;48.416;8.512;2022-08-23T14:12:04;2.25;;;2.05;;
7903;SDS011;3997;48.416;8.512;2022-08-23T14:14:32;2.17;;;1.98;;
7903;SDS011;3997;48.416;8.512;2022-08-23T14:17:00;4.75;;;2.00;;
7903;SDS011;3997;48.416;8.512;2022-08-23T14:19:27;1.90;;;1.80;;
7903;SDS011;3997;48.416;8.512;2022-08-23T14:21:55;2.28;;;2.08;;
7903;SDS011;3997;48.416;8.512;2022-08-23T14:24:23;2.17;;;1.98;;
7903;SDS011;3997;48.416;8.512;2022-08-23T14:26:49;2.08;;;1.88;;
7903;SDS011;3997;48.416;8.512;2022-08-23T14:29:16;1.80;;;1.70;;
7903;SDS011;3997;48.416;8.512;2022-08-23T14:31:43;1.90;;;1.80;;
7903;SDS011;3997;48.416;8.512;2022-08-23T14:34:10;2.08;;;1.98;;
7903;SDS011;3997;48.416;8.512;2022-08-23T14:36:36;2.25;;;2.15;;
7903;SDS011;3997;48.416;8.512;2022-08-23T14:39:03;2.13;;;1.90;;
7903;SDS011;3997;48.416;8.512;2022-08-23T14:41:31;2.20;;;2.10;;
7903;SDS011;3997;48.416;8.512;2022-08-23T14:43:57;2.25;;;1.95;;
7903;SDS011;3997;48.416;8.512;2022-08-23T14:46:23;2.17;;;2.08;;
7903;SDS011;3997;48.416;8.512;2022-08-23T14:48:50;2.30;;;2.20;;
7903;SDS011;3997;48.416;8.512;2022-08-23T14:51:20;2.38;;;2.22;;
7903;SDS011;3997;48.416;8.512;2022-08-23T14:53:48;3.70;;;2.47;;
7903;SDS011;3997;48.416;8.512;2022-08-23T14:56:15;2.20;;;2.10;;
7903;SDS011;3997;48.416;8.512;2022-08-23T14:58:43;2.30;;;2.20;;
7903;SDS011;3997;48.416;8.512;2022-08-23T15:01:10;2.28;;;2.17;;
7903;SDS011;3997;48.416;8.512;2022-08-23T15:03:37;2.33;;;2.20;;
7903;SDS011;3997;48.416;8.512;2022-08-23T15:06:06;2.45;;;2.05;;
7903;SDS011;3997;48.416;8.512;2022-08-23T15:08:32;3.00;;;2.10;;
7903;SDS011;3997;48.416;8.512;2022-08-23T15:10:58;2.35;;;2.13;;
7903;SDS011;3997;48.416;8.512;2022-08-23T15:13:25;2.80;;;2.70;;
7903;SDS011;3997;48.416;8.512;2022-08-23T15:15:53;2.60;;;2.10;;
7903;SDS011;3997;48.416;8.512;2022-08-23T15:18:19;2.30;;;2.13;;
7903;SDS011;3997;48.416;8.512;2022-08-23T15:20:46;2.47;;;2.03;;
7903;SDS011;3997;48.416;8.512;2022-08-23T15:23:12;2.00;;;1.90;;
7903;SDS011;3997;48.416;8.512;2022-08-23T15:25:39;2.30;;;2.13;;
7903;SDS011;3997;48.416;8.512;2022-08-23T15:28:07;1.85;;;1.85;;
7903;SDS011;3997;48.416;8.512;2022-08-23T15:30:33;2.53;;;2.10;;